createdAt,value
2019-05-01T00:01:30.515Z,94431.22
2019-05-01T00:03:56.520Z,94437.89
2019-05-01T00:06:22.543Z,94431.34
2019-05-01T00:08:48.545Z,94440.28
2019-05-01T00:11:14.549Z,94441.61
2019-05-01T00:13:40.560Z,94440.28
2019-05-01T00:16:06.560Z,94436.78
2019-05-01T00:18:32.580Z,94433.32
2019-05-01T00:20:58.592Z,94439.58
2019-05-01T00:23:24.592Z,94430.66
2019-05-01T00:25:50.608Z,94428.49
2019-05-01T00:28:16.621Z,94435.99
2019-05-01T00:30:42.635Z,94442.77
2019-05-01T00:33:08.632Z,94444.51
2019-05-01T00:35:34.651Z,94443.17
2019-05-01T00:38:00.646Z,94445.02
2019-05-01T00:40:26.676Z,94449.02
2019-05-01T00:42:52.681Z,94442.89
2019-05-01T00:45:18.689Z,94446.35
2019-05-01T00:47:44.715Z,94453.57
2019-05-01T00:50:10.742Z,94453.57
2019-05-01T00:52:36.751Z,94451.41
2019-05-01T00:55:02.753Z,94439.91
2019-05-01T00:57:28.775Z,94443.12
2019-05-01T00:59:54.784Z,94433.77
2019-05-01T01:02:20.783Z,94431.11
2019-05-01T01:04:46.801Z,94432.95
2019-05-01T01:07:12.828Z,94435.63
2019-05-01T01:09:38.842Z,94441.88
2019-05-01T01:12:04.831Z,94435.20
2019-05-01T01:14:30.862Z,94432.95
2019-05-01T01:16:56.856Z,94433.45
2019-05-01T01:19:22.864Z,94432.67
2019-05-01T01:21:48.878Z,94434.92
2019-05-01T01:24:14.881Z,94431.84
2019-05-01T01:26:40.902Z,94428.77
2019-05-01T01:29:06.941Z,94426.22
2019-05-01T01:31:32.933Z,94414.59
2019-05-01T01:33:58.946Z,94419.55
2019-05-01T01:36:24.955Z,94413.80
2019-05-01T01:38:50.952Z,94406.30
2019-05-01T01:41:16.979Z,94400.45
2019-05-01T01:43:42.972Z,94402.71
2019-05-01T01:46:09.000Z,94400.04
2019-05-01T01:48:34.993Z,94389.88
2019-05-01T01:51:01.044Z,94387.74
2019-05-01T01:53:27.041Z,94383.20
2019-05-01T01:55:53.057Z,94381.45
2019-05-01T01:58:19.076Z,94378.41
2019-05-01T02:00:45.067Z,94381.58
2019-05-01T02:03:11.186Z,94378.50
2019-05-01T02:05:37.177Z,94377.17
2019-05-01T02:08:03.190Z,94379.42
2019-05-01T02:10:42.268Z,94377.30
2019-05-01T02:12:55.211Z,94371.00
2019-05-01T02:15:21.238Z,94375.14
2019-05-01T02:17:47.248Z,94376.06
2019-05-01T02:20:13.248Z,94374.22
2019-05-01T02:22:39.268Z,94374.31
2019-05-01T02:25:05.276Z,94377.91
2019-05-01T02:27:31.295Z,94382.45
2019-05-01T02:29:57.289Z,94377.52
2019-05-01T02:32:23.306Z,94378.03
2019-05-01T02:34:49.332Z,94377.21
2019-05-01T02:37:15.323Z,94376.80
2019-05-01T02:39:41.347Z,94370.13
2019-05-01T02:42:07.336Z,94363.45
2019-05-01T02:44:33.355Z,94369.34
2019-05-01T02:46:59.379Z,94366.13
2019-05-01T02:49:25.369Z,94369.84
2019-05-01T02:51:51.405Z,94370.36
2019-05-01T02:54:17.391Z,94371.69
2019-05-01T02:56:43.393Z,94370.89
2019-05-01T02:59:09.410Z,94372.64
2019-05-01T03:01:46.483Z,94374.48
2019-05-01T03:04:01.439Z,94379.41
2019-05-01T03:06:27.430Z,94372.33
2019-05-01T03:08:53.443Z,94375.00
2019-05-01T03:11:19.441Z,94385.67
2019-05-01T03:13:45.482Z,94379.92
2019-05-01T03:16:11.508Z,94384.47
2019-05-01T03:18:37.508Z,94392.47
2019-05-01T03:21:03.532Z,94392.58
2019-05-01T03:23:29.536Z,94392.47
2019-05-01T03:25:55.545Z,94395.24
2019-05-01T03:28:21.539Z,94388.70
2019-05-01T03:30:47.593Z,94382.54
2019-05-01T03:33:13.582Z,94388.29
2019-05-01T03:35:39.575Z,94394.55
2019-05-01T03:38:05.597Z,94397.73
2019-05-01T03:40:31.589Z,94399.06
2019-05-01T03:42:57.610Z,94407.98
2019-05-01T03:45:23.599Z,94404.94
2019-05-01T03:47:49.735Z,94404.81
2019-05-01T03:50:15.735Z,94402.65
2019-05-01T03:52:41.756Z,94404.11
2019-05-01T03:55:07.779Z,94413.55
2019-05-01T03:57:33.768Z,94410.38
2019-05-01T03:59:59.795Z,94415.02
2019-05-01T04:02:33.900Z,94415.84
2019-05-01T04:04:51.793Z,94418.51
2019-05-01T04:07:17.818Z,94417.55
2019-05-01T04:09:43.846Z,94416.77
2019-05-01T04:12:09.855Z,94415.43
2019-05-01T04:14:39.116Z,94416.77
2019-05-01T04:17:01.937Z,94422.09
2019-05-01T04:19:27.884Z,94417.41
2019-05-01T04:21:53.891Z,94424.77
2019-05-01T04:24:19.902Z,94414.51
2019-05-01T04:26:45.927Z,94415.94
2019-05-01T04:29:11.956Z,94412.34
2019-05-01T04:31:37.984Z,94412.34
2019-05-01T04:34:03.993Z,94409.27
2019-05-01T04:36:30.001Z,94408.22
2019-05-01T04:38:56.001Z,94401.67
2019-05-01T04:41:22.026Z,94401.77
2019-05-01T04:43:48.024Z,94399.52
2019-05-01T04:46:14.092Z,94400.84
2019-05-01T04:48:40.115Z,94399.41
2019-05-01T04:51:06.130Z,94404.75
2019-05-01T04:53:32.143Z,94401.67
2019-05-01T04:55:58.141Z,94400.84
2019-05-01T04:58:24.163Z,94397.26
2019-05-01T05:00:50.192Z,94398.49
2019-05-01T05:03:16.213Z,94402.09
2019-05-01T05:05:42.218Z,94396.20
2019-05-01T05:08:08.239Z,94402.65
2019-05-01T05:10:34.255Z,94395.98
2019-05-01T05:13:00.257Z,94397.86
2019-05-01T05:15:26.286Z,94393.31
2019-05-01T05:17:52.276Z,94394.27
2019-05-01T05:20:18.303Z,94394.13
2019-05-01T05:22:44.323Z,94396.80
2019-05-01T05:25:10.314Z,94393.21
2019-05-01T05:27:36.329Z,94393.31
2019-05-01T05:30:02.326Z,94398.65
2019-05-01T05:32:28.328Z,94392.93
2019-05-01T05:34:54.348Z,94388.10
2019-05-01T05:37:20.373Z,94406.78
2019-05-01T05:39:46.394Z,94399.19
2019-05-01T05:42:12.450Z,94401.86
2019-05-01T05:44:38.848Z,94398.27
2019-05-01T05:47:04.918Z,94398.14
2019-05-01T05:49:30.944Z,94402.42
2019-05-01T05:51:57.153Z,94398.96
2019-05-01T05:54:23.240Z,94396.80
2019-05-01T05:56:54.180Z,94395.38
2019-05-01T05:59:20.182Z,94402.42
2019-05-01T06:01:46.518Z,94405.63
2019-05-01T06:06:47.948Z,94411.39
2019-05-01T06:09:15.553Z,94410.28
2019-05-01T06:11:56.392Z,94410.15
2019-05-01T06:14:22.437Z,94406.55
2019-05-01T06:16:52.235Z,94404.06
2019-05-01T06:19:16.204Z,94403.89
2019-05-01T06:21:40.523Z,94406.55
2019-05-01T06:24:07.015Z,94406.84
2019-05-01T06:26:37.277Z,94405.81
2019-05-01T06:29:00.684Z,94401.17
2019-05-01T06:31:25.355Z,94407.34
2019-05-01T06:34:00.761Z,94402.80
2019-05-01T06:36:26.795Z,94412.04
2019-05-01T06:38:52.783Z,94411.91
2019-05-01T06:41:18.782Z,94408.31
2019-05-01T06:43:44.803Z,94404.73
2019-05-01T06:46:10.823Z,94427.28
2019-05-01T06:48:36.813Z,94413.14
2019-05-01T06:51:02.840Z,94405.65
2019-05-01T06:53:28.940Z,94410.16
2019-05-01T06:55:55.077Z,94414.16
2019-05-01T06:58:21.855Z,94423.50
2019-05-01T07:00:47.248Z,94430.30
2019-05-01T07:03:13.274Z,94426.30
2019-05-01T07:05:39.299Z,94420.55
2019-05-01T07:08:05.325Z,94421.20
2019-05-01T07:10:43.203Z,94430.13
2019-05-01T07:12:59.917Z,94425.70
2019-05-01T07:15:26.814Z,94420.50
2019-05-01T07:17:50.099Z,94423.68
2019-05-01T07:20:16.689Z,94418.84
2019-05-01T07:22:42.556Z,94421.11
2019-05-01T07:25:10.578Z,94423.77
2019-05-01T07:27:39.036Z,94422.98
2019-05-01T07:30:08.028Z,94420.72
2019-05-01T07:32:36.389Z,94421.23
2019-05-01T07:35:02.093Z,94418.16
2019-05-01T07:37:27.741Z,94416.41
2019-05-01T07:39:52.262Z,94424.83
2019-05-01T07:42:18.243Z,94412.53
2019-05-01T07:44:44.287Z,94414.66
2019-05-01T07:47:10.280Z,94412.95
2019-05-01T07:49:36.309Z,94413.05
2019-05-01T07:52:02.332Z,94411.70
2019-05-01T07:54:28.331Z,94405.95
2019-05-01T07:56:54.394Z,94411.30
2019-05-01T07:59:22.901Z,94413.97
2019-05-01T08:01:49.883Z,94405.03
2019-05-01T08:04:13.785Z,94406.37
2019-05-01T08:06:38.467Z,94403.29
2019-05-01T08:09:04.491Z,94398.49
2019-05-01T08:11:30.513Z,94403.70
2019-05-01T08:14:07.029Z,94407.20
2019-05-01T08:16:22.669Z,94407.20
2019-05-01T08:18:48.672Z,94398.78
2019-05-01T08:21:14.697Z,94406.37
2019-05-01T08:23:42.666Z,94403.70
2019-05-01T08:26:08.771Z,94406.78
2019-05-01T08:28:33.335Z,94394.77
2019-05-01T08:30:58.731Z,94403.29
2019-05-01T08:33:24.755Z,94400.63
2019-05-01T08:35:50.753Z,94405.03
2019-05-01T08:38:16.788Z,94400.94
2019-05-01T08:40:42.778Z,94403.61
2019-05-01T08:43:08.804Z,94390.77
2019-05-01T08:45:35.802Z,94398.27
2019-05-01T08:48:01.513Z,94398.27
2019-05-01T08:50:27.066Z,94403.19
2019-05-01T08:52:53.086Z,94403.29
2019-05-01T08:55:19.114Z,94406.50
2019-05-01T08:57:45.105Z,94405.55
2019-05-01T09:00:11.137Z,94396.84
2019-05-01T09:02:41.470Z,94400.84
2019-05-01T09:05:07.242Z,94410.59
2019-05-01T09:07:29.380Z,94402.82
2019-05-01T09:09:55.350Z,94409.91
2019-05-01T09:12:21.379Z,94412.16
2019-05-01T09:14:47.393Z,94415.34
2019-05-01T09:17:13.428Z,94418.01
2019-05-01T09:19:39.446Z,94417.09
2019-05-01T09:22:05.471Z,94420.58
2019-05-01T09:24:31.481Z,94410.83
2019-05-01T09:26:57.481Z,94411.24
2019-05-01T09:29:23.479Z,94411.24
2019-05-01T09:31:49.499Z,94408.16
2019-05-01T09:34:19.105Z,94415.75
2019-05-01T09:36:41.651Z,94410.95
2019-05-01T09:39:07.640Z,94401.62
2019-05-01T09:41:38.525Z,94393.20
2019-05-01T09:43:59.660Z,94392.38
2019-05-01T09:46:25.677Z,94386.63
2019-05-01T09:48:51.748Z,94397.71
2019-05-01T09:51:17.757Z,94393.70
2019-05-01T09:53:43.786Z,94387.95
2019-05-01T09:56:09.849Z,94383.45
2019-05-01T09:58:35.886Z,94384.78
2019-05-01T10:01:01.933Z,94381.19
2019-05-01T10:03:27.947Z,94385.70
2019-05-01T10:05:53.943Z,94391.45
2019-05-01T10:08:20.047Z,94391.45
2019-05-01T10:10:46.096Z,94384.66
2019-05-01T10:13:12.377Z,94381.61
2019-05-01T10:15:38.435Z,94377.19
2019-05-01T10:18:04.443Z,94385.47
2019-05-01T10:20:31.274Z,94385.06
2019-05-01T10:22:57.280Z,94378.94
2019-05-01T10:25:23.323Z,94380.96
2019-05-01T10:27:49.353Z,94373.47
2019-05-01T10:30:15.352Z,94382.81
2019-05-01T10:32:41.399Z,94365.05
2019-05-01T10:35:07.399Z,94371.72
2019-05-01T10:37:35.328Z,94375.22
2019-05-01T10:39:59.426Z,94381.98
2019-05-01T10:42:25.420Z,94377.19
2019-05-01T10:44:51.444Z,94375.86
2019-05-01T10:47:17.462Z,94367.31
2019-05-01T10:49:43.464Z,94370.52
2019-05-01T10:52:14.210Z,94390.94
2019-05-01T10:54:35.550Z,94368.36
2019-05-01T10:57:03.376Z,94379.44
2019-05-01T10:59:27.603Z,94366.38
2019-05-01T11:01:53.735Z,94374.75
2019-05-01T11:04:19.726Z,94375.72
2019-05-01T11:06:45.741Z,94374.80
2019-05-01T11:09:11.760Z,94368.55
2019-05-01T11:11:37.763Z,94368.13
2019-05-01T11:14:03.999Z,94368.13
2019-05-01T11:16:30.012Z,94370.39
2019-05-01T11:18:56.030Z,94365.46
2019-05-01T11:21:22.044Z,94361.73
2019-05-01T11:23:48.064Z,94359.71
2019-05-01T11:26:14.081Z,94368.41
2019-05-01T11:28:40.076Z,94365.64
2019-05-01T11:31:06.104Z,94359.48
2019-05-01T11:33:32.118Z,94364.72
2019-05-01T11:36:08.887Z,94368.19
2019-05-01T11:38:24.392Z,94354.84
2019-05-01T11:40:50.429Z,94361.13
2019-05-01T11:43:16.431Z,94359.80
2019-05-01T11:45:42.430Z,94366.98
2019-05-01T11:48:08.450Z,94378.48
2019-05-01T11:50:34.456Z,94367.27
2019-05-01T11:53:00.470Z,94365.00
2019-05-01T11:55:26.499Z,94362.47
2019-05-01T11:57:52.504Z,94365.13
2019-05-01T12:00:18.541Z,94351.48
2019-05-01T12:02:44.544Z,94351.80
2019-05-01T12:05:10.555Z,94350.84
2019-05-01T12:07:36.605Z,94346.05
2019-05-01T12:10:02.603Z,94343.38
2019-05-01T12:12:28.627Z,94342.97
2019-05-01T12:14:54.617Z,94345.35
2019-05-01T12:17:20.670Z,94340.30
2019-05-01T12:19:46.678Z,94339.88
2019-05-01T12:22:12.769Z,94341.34
2019-05-01T12:24:38.792Z,94330.67
2019-05-01T12:27:04.815Z,94341.86
2019-05-01T12:29:30.837Z,94332.11
2019-05-01T12:31:56.836Z,94326.48
2019-05-01T12:34:22.953Z,94334.49
2019-05-01T12:36:48.976Z,94329.66
2019-05-01T12:39:15.011Z,94317.25
2019-05-01T12:41:41.084Z,94327.92
2019-05-01T12:44:07.093Z,94325.38
2019-05-01T12:46:33.101Z,94325.06
2019-05-01T12:48:59.125Z,94317.38
2019-05-01T12:51:25.161Z,94323.22
2019-05-01T12:53:51.184Z,94314.39
2019-05-01T12:56:17.185Z,94314.11
2019-05-01T12:58:43.207Z,94318.11
2019-05-01T13:01:09.228Z,94309.70
2019-05-01T13:03:35.228Z,94306.75
2019-05-01T13:06:01.293Z,94318.11
2019-05-01T13:08:28.569Z,94313.28
2019-05-01T13:10:53.383Z,94313.83
2019-05-01T13:13:19.520Z,94316.09
2019-05-01T13:15:45.558Z,94311.26
2019-05-01T13:18:11.573Z,94311.80
2019-05-01T13:20:37.566Z,94307.80
2019-05-01T13:23:03.624Z,94299.80
2019-05-01T13:25:29.658Z,94313.23
2019-05-01T13:27:55.723Z,94312.83
2019-05-01T13:30:21.700Z,94305.73
2019-05-01T13:32:47.700Z,94310.16
2019-05-01T13:35:13.749Z,94306.80
2019-05-01T13:37:39.749Z,94310.28
2019-05-01T13:40:05.794Z,94307.30
2019-05-01T13:42:31.811Z,94309.97
2019-05-01T13:44:57.811Z,94295.70
2019-05-01T13:47:23.842Z,94299.30
2019-05-01T13:49:49.841Z,94296.77
2019-05-01T13:52:15.876Z,94303.30
2019-05-01T13:54:41.888Z,94317.98
2019-05-01T13:57:07.936Z,94309.18
2019-05-01T13:59:33.930Z,94312.77
2019-05-01T14:01:59.975Z,94308.36
2019-05-01T14:04:25.994Z,94310.74
2019-05-01T14:06:51.988Z,94306.33
2019-05-01T14:09:18.005Z,94312.72
2019-05-01T14:11:44.159Z,94306.42
2019-05-01T14:14:10.185Z,94309.50
2019-05-01T14:16:36.174Z,94312.17
2019-05-01T14:19:02.298Z,94309.50
2019-05-01T14:21:28.394Z,94313.00
2019-05-01T14:23:54.417Z,94315.16
2019-05-01T14:26:20.453Z,94320.08
2019-05-01T14:28:46.451Z,94318.84
2019-05-01T14:31:12.457Z,94323.90
2019-05-01T14:33:38.476Z,94327.90
2019-05-01T14:36:04.498Z,94334.06
2019-05-01T14:38:30.642Z,94330.66
2019-05-01T14:40:56.753Z,94333.43
2019-05-01T14:43:22.759Z,94341.34
2019-05-01T14:45:48.945Z,94336.83
2019-05-01T14:48:14.945Z,94339.91
2019-05-01T14:50:40.995Z,94344.73
2019-05-01T14:53:06.965Z,94334.57
2019-05-01T14:55:32.976Z,94332.00
2019-05-01T14:57:59.015Z,94324.81
2019-05-01T15:00:25.023Z,94329.33
2019-05-01T15:02:51.038Z,94328.51
2019-05-01T15:05:17.046Z,94325.02
2019-05-01T15:07:44.101Z,94327.58
2019-05-01T15:10:09.059Z,94326.77
2019-05-01T15:12:35.089Z,94322.76
2019-05-01T15:15:01.102Z,94324.19
2019-05-01T15:17:27.125Z,94321.52
2019-05-01T15:19:53.153Z,94327.78
2019-05-01T15:22:19.157Z,94320.41
2019-05-01T15:24:45.175Z,94326.67
2019-05-01T15:27:11.172Z,94325.34
2019-05-01T15:29:37.238Z,94332.96
2019-05-01T15:32:03.218Z,94323.31
2019-05-01T15:34:29.262Z,94321.05
2019-05-01T15:36:55.263Z,94321.56
2019-05-01T15:39:21.258Z,94319.72
2019-05-01T15:41:47.297Z,94319.44
2019-05-01T15:44:13.304Z,94319.44
2019-05-01T15:46:39.320Z,94317.28
2019-05-01T15:49:05.373Z,94316.36
2019-05-01T15:51:31.395Z,94325.06
2019-05-01T15:53:57.411Z,94318.29
2019-05-01T15:56:23.407Z,94309.93
2019-05-01T15:58:49.413Z,94318.56
2019-05-01T16:01:15.485Z,94314.14
2019-05-01T16:03:41.483Z,94304.91
2019-05-01T16:06:08.411Z,94305.92
2019-05-01T16:08:33.501Z,94308.86
2019-05-01T16:10:59.525Z,94308.86
2019-05-01T16:13:25.521Z,94312.87
2019-05-01T16:15:51.545Z,94312.12
2019-05-01T16:18:17.590Z,94319.21
2019-05-01T16:20:43.589Z,94317.28
2019-05-01T16:23:09.604Z,94311.44
2019-05-01T16:25:35.607Z,94322.39
2019-05-01T16:28:01.651Z,94323.77
2019-05-01T16:30:27.658Z,94315.38
2019-05-01T16:32:53.696Z,94327.08
2019-05-01T16:35:19.683Z,94327.17
2019-05-01T16:37:45.681Z,94329.94
2019-05-01T16:40:11.788Z,94332.61
2019-05-01T16:42:37.787Z,94333.33
2019-05-01T16:45:03.804Z,94338.25
2019-05-01T16:47:29.865Z,94345.02
2019-05-01T16:49:55.882Z,94341.12
2019-05-01T16:52:21.892Z,94354.08
2019-05-01T16:54:58.752Z,94345.25
2019-05-01T16:57:13.956Z,94356.44
2019-05-01T16:59:44.201Z,94354.69
2019-05-01T17:02:10.773Z,94352.15
2019-05-01T17:04:36.774Z,94361.08
2019-05-01T17:07:02.773Z,94365.58
2019-05-01T17:09:28.800Z,94376.38
2019-05-01T17:11:54.803Z,94373.81
2019-05-01T17:14:20.816Z,94355.68
2019-05-01T17:16:46.829Z,94375.69
2019-05-01T17:19:12.832Z,94383.37
2019-05-01T17:21:38.901Z,94387.38
2019-05-01T17:24:04.903Z,94395.38
2019-05-01T17:26:30.931Z,94399.70
2019-05-01T17:28:56.940Z,94408.20
2019-05-01T17:31:22.963Z,94414.05
2019-05-01T17:33:50.889Z,94415.39
2019-05-01T17:36:14.988Z,94427.02
2019-05-01T17:38:49.208Z,94424.72
2019-05-01T17:41:07.021Z,94428.22
2019-05-01T17:43:33.046Z,94430.37
2019-05-01T17:45:59.075Z,94437.97
2019-05-01T17:48:28.849Z,94433.55
2019-05-01T17:50:55.003Z,94435.08
2019-05-01T17:53:17.429Z,94437.33
2019-05-01T17:55:44.732Z,94443.17
2019-05-01T17:58:09.479Z,94447.08
2019-05-01T18:00:35.477Z,94456.92
2019-05-01T18:03:01.527Z,94454.38
2019-05-01T18:05:27.530Z,94459.09
2019-05-01T18:07:53.568Z,94456.64
2019-05-01T18:10:19.561Z,94461.47
2019-05-01T18:12:45.600Z,94471.59
2019-05-01T18:15:11.614Z,94479.60
2019-05-01T18:17:37.667Z,94474.80
2019-05-01T18:20:03.707Z,94488.66
2019-05-01T18:22:32.115Z,94491.09
2019-05-01T18:24:58.466Z,94487.19
2019-05-01T18:27:21.745Z,94489.86
2019-05-01T18:29:49.662Z,94488.66
2019-05-01T18:32:18.407Z,94488.02
2019-05-01T18:34:44.434Z,94497.26
2019-05-01T18:37:10.440Z,94496.20
2019-05-01T18:39:36.466Z,94503.30
2019-05-01T18:42:02.486Z,94503.93
2019-05-01T18:44:28.518Z,94498.97
2019-05-01T18:46:54.546Z,94497.95
2019-05-01T18:49:21.775Z,94500.02
2019-05-01T18:51:46.581Z,94510.69
2019-05-01T18:54:18.058Z,94508.44
2019-05-01T18:56:44.119Z,94503.20
2019-05-01T18:59:10.114Z,94510.00
2019-05-01T19:01:36.130Z,94517.27
2019-05-01T19:04:02.142Z,94517.36
2019-05-01T19:06:40.608Z,94523.11
2019-05-01T19:08:55.861Z,94524.86
2019-05-01T19:11:21.900Z,94534.98
2019-05-01T19:13:47.912Z,94529.27
2019-05-01T19:16:13.920Z,94535.53
2019-05-01T19:18:39.922Z,94539.12
2019-05-01T19:21:05.927Z,94540.86
2019-05-01T19:23:35.727Z,94534.29
2019-05-01T19:28:37.285Z,94543.53
2019-05-01T19:31:03.312Z,94545.79
2019-05-01T19:33:29.308Z,94547.41
2019-05-01T19:35:55.321Z,94547.82
2019-05-01T19:38:21.346Z,94541.05
2019-05-01T19:40:47.430Z,94554.27
2019-05-01T19:43:13.463Z,94548.93
2019-05-01T19:45:39.517Z,94550.97
2019-05-01T19:48:05.493Z,94548.93
2019-05-01T19:50:31.521Z,94554.27
2019-05-01T19:52:58.153Z,94550.27
2019-05-01T19:55:24.115Z,94545.76
2019-05-01T19:57:54.406Z,94549.76
2019-05-01T20:00:20.387Z,94548.42
2019-05-01T20:02:46.443Z,94544.42
2019-05-01T20:05:12.453Z,94545.76
2019-05-01T20:07:38.479Z,94546.17
2019-05-01T20:10:04.471Z,94545.76
2019-05-01T20:12:30.490Z,94540.01
2019-05-01T20:14:56.509Z,94540.83
2019-05-01T20:17:23.986Z,94542.67
2019-05-01T20:19:50.037Z,94548.52
2019-05-01T20:22:16.073Z,94541.56
2019-05-01T20:24:44.244Z,94547.41
2019-05-01T20:27:08.091Z,94547.95
2019-05-01T20:29:34.117Z,94542.20
2019-05-01T20:32:00.118Z,94541.38
2019-05-01T20:34:26.129Z,94540.95
2019-05-01T20:36:52.147Z,94542.70
2019-05-01T20:39:18.152Z,94544.17
2019-05-01T20:41:44.171Z,94543.84
2019-05-01T20:44:10.200Z,94539.44
2019-05-01T20:46:36.314Z,94545.72
2019-05-01T20:49:06.301Z,94543.44
2019-05-01T20:51:28.335Z,94536.39
2019-05-01T20:53:54.357Z,94536.98
2019-05-01T20:56:20.384Z,94541.81
2019-05-01T20:58:46.392Z,94535.27
2019-05-01T21:01:12.400Z,94536.61
2019-05-01T21:03:38.403Z,94538.03
2019-05-01T21:06:07.916Z,94537.63
2019-05-01T21:08:34.287Z,94532.83
2019-05-01T21:10:56.489Z,94532.92
2019-05-01T21:13:23.470Z,94535.09
2019-05-01T21:15:48.555Z,94536.92
2019-05-01T21:18:14.577Z,94533.05
2019-05-01T21:20:40.566Z,94534.06
2019-05-01T21:23:10.656Z,94537.66
2019-05-01T21:25:32.592Z,94543.81
2019-05-01T21:27:58.742Z,94540.23
2019-05-01T21:30:24.741Z,94539.41
2019-05-01T21:32:50.749Z,94542.99
2019-05-01T21:35:16.848Z,94544.03
2019-05-01T21:37:42.851Z,94541.38
2019-05-01T21:40:08.864Z,94542.70
2019-05-01T21:42:34.859Z,94540.67
2019-05-01T21:45:00.879Z,94541.08
2019-05-01T21:47:26.880Z,94546.92
2019-05-01T21:49:53.054Z,94551.34
2019-05-01T21:52:23.076Z,94546.52
2019-05-01T21:54:44.927Z,94556.27
2019-05-01T21:57:12.066Z,94558.23
2019-05-01T21:59:39.772Z,94556.48
2019-05-01T22:02:05.492Z,94560.48
2019-05-01T22:04:32.001Z,94561.82
2019-05-01T22:06:55.063Z,94561.95
2019-05-01T22:09:21.061Z,94560.99
2019-05-01T22:11:47.069Z,94556.20
2019-05-01T22:14:13.089Z,94555.78
2019-05-01T22:16:39.092Z,94560.29
2019-05-01T22:19:05.106Z,94558.55
2019-05-01T22:21:31.148Z,94566.96
2019-05-01T22:23:57.142Z,94562.13
2019-05-01T22:26:23.167Z,94562.67
2019-05-01T22:28:50.121Z,94568.92
2019-05-01T22:31:16.815Z,94567.59
2019-05-01T22:33:41.182Z,94566.27
2019-05-01T22:36:07.176Z,94561.97
2019-05-01T22:38:33.189Z,94564.10
2019-05-01T22:41:06.020Z,94561.44
2019-05-01T22:43:25.211Z,94555.30
2019-05-01T22:45:51.213Z,94558.48
2019-05-01T22:48:17.237Z,94560.64
2019-05-01T22:50:43.250Z,94557.14
2019-05-01T22:53:12.982Z,94561.14
2019-05-01T22:55:35.264Z,94563.81
2019-05-01T22:58:01.263Z,94562.58
2019-05-01T23:00:27.264Z,94566.98
2019-05-01T23:02:53.309Z,94564.95
2019-05-01T23:05:23.071Z,94567.53
2019-05-01T23:07:45.330Z,94557.88
2019-05-01T23:10:11.347Z,94552.95
2019-05-01T23:12:37.350Z,94554.00
2019-05-01T23:15:03.360Z,94553.08
2019-05-01T23:17:29.395Z,94553.08
2019-05-01T23:19:58.952Z,94554.92
2019-05-01T23:22:21.407Z,94556.25
2019-05-01T23:24:47.459Z,94543.42
2019-05-01T23:27:13.430Z,94547.84
2019-05-01T23:29:39.436Z,94546.51
2019-05-01T23:32:05.469Z,94546.09
2019-05-01T23:34:31.466Z,94547.02
2019-05-01T23:36:57.522Z,94547.97
2019-05-01T23:39:23.558Z,94543.65
2019-05-01T23:41:49.550Z,94541.80
2019-05-01T23:44:15.563Z,94532.98
2019-05-01T23:46:41.567Z,94528.98
2019-05-01T23:49:07.563Z,94531.23
2019-05-01T23:51:33.578Z,94526.31
2019-05-01T23:53:59.691Z,94527.23
2019-05-01T23:56:25.741Z,94522.03
2019-05-01T23:58:51.736Z,94523.77
